createdAt,value
2019-02-10T00:01:17.425Z,4.43
2019-02-10T00:04:20.952Z,8.37
2019-02-10T00:07:24.525Z,9.48
2019-02-10T00:10:28.060Z,4.78
2019-02-10T00:13:35.968Z,8.73
2019-02-10T00:16:39.438Z,9.37
2019-02-10T00:19:42.817Z,14.53
2019-02-10T00:22:46.234Z,12.68
2019-02-10T00:25:49.744Z,6.47
2019-02-10T00:28:53.176Z,7.73
2019-02-10T00:31:56.747Z,6.83
2019-02-10T00:35:00.130Z,8.53
2019-02-10T00:38:03.745Z,8.40
2019-02-10T00:41:07.144Z,8.48
2019-02-10T00:44:10.581Z,11.12
2019-02-10T00:47:13.944Z,12.50
2019-02-10T00:50:17.484Z,12.25
2019-02-10T00:53:21.048Z,9.63
2019-02-10T00:56:24.557Z,7.80
2019-02-10T00:59:27.889Z,9.20
2019-02-10T01:02:31.478Z,15.20
2019-02-10T01:05:34.856Z,7.22
2019-02-10T01:08:38.497Z,10.00
2019-02-10T01:11:42.060Z,9.55
2019-02-10T01:14:45.496Z,7.50
2019-02-10T01:17:48.868Z,10.60
2019-02-10T01:20:52.264Z,10.25
2019-02-10T01:23:55.596Z,7.77
2019-02-10T01:26:58.964Z,9.70
2019-02-10T01:30:02.396Z,6.78
2019-02-10T01:33:05.888Z,10.57
2019-02-10T01:36:09.420Z,8.88
2019-02-10T01:39:15.425Z,16.67
2019-02-10T01:42:18.728Z,9.15
2019-02-10T01:45:22.332Z,9.40
2019-02-10T01:48:27.381Z,9.73
2019-02-10T01:51:30.772Z,11.88
2019-02-10T01:54:34.207Z,11.35
2019-02-10T01:57:38.931Z,7.95
2019-02-10T02:00:42.400Z,9.83
2019-02-10T02:03:45.805Z,5.47
2019-02-10T02:06:49.100Z,11.35
2019-02-10T02:09:52.536Z,5.60
2019-02-10T02:12:56.000Z,9.68
2019-02-10T02:16:00.329Z,9.47
2019-02-10T02:19:03.927Z,12.45
2019-02-10T02:22:07.433Z,9.17
2019-02-10T02:25:11.597Z,7.73
2019-02-10T02:28:15.050Z,5.00
2019-02-10T02:31:18.349Z,11.47
2019-02-10T02:34:21.845Z,8.87
2019-02-10T02:37:25.249Z,9.03
2019-02-10T02:40:28.697Z,9.27
2019-02-10T02:43:32.049Z,9.53
2019-02-10T02:46:35.346Z,14.30
2019-02-10T02:49:38.688Z,6.22
2019-02-10T02:52:42.153Z,12.83
2019-02-10T02:55:45.444Z,7.42
2019-02-10T02:58:48.946Z,9.18
2019-02-10T03:01:52.350Z,10.53
2019-02-10T03:04:55.945Z,7.20
2019-02-10T03:07:59.248Z,6.03
2019-02-10T03:11:02.674Z,8.27
2019-02-10T03:14:09.224Z,6.70
2019-02-10T03:17:12.621Z,8.63
2019-02-10T03:20:16.130Z,10.05
2019-02-10T03:23:19.424Z,7.30
2019-02-10T03:26:22.923Z,8.87
2019-02-10T03:29:26.425Z,6.20
2019-02-10T03:32:29.832Z,9.73
2019-02-10T03:35:33.364Z,7.20
2019-02-10T03:38:36.876Z,9.07
2019-02-10T03:41:40.477Z,10.57
2019-02-10T03:44:44.042Z,16.05
2019-02-10T03:47:48.501Z,10.38
2019-02-10T03:50:51.906Z,6.15
2019-02-10T03:53:55.365Z,8.53
2019-02-10T03:56:58.800Z,10.80
2019-02-10T04:00:02.168Z,14.10
2019-02-10T04:03:05.670Z,8.93
2019-02-10T04:06:09.108Z,13.20
2019-02-10T04:09:12.472Z,10.67
2019-02-10T04:12:15.804Z,14.47
2019-02-10T04:15:19.375Z,6.63
2019-02-10T04:18:22.877Z,13.93
2019-02-10T04:21:26.416Z,11.43
2019-02-10T04:24:29.783Z,8.33
2019-02-10T04:27:33.216Z,9.63
2019-02-10T04:30:36.672Z,10.40
2019-02-10T04:33:40.080Z,12.23
2019-02-10T04:36:43.524Z,12.98
2019-02-10T04:39:46.977Z,7.22
2019-02-10T04:42:50.517Z,11.43
2019-02-10T04:45:53.920Z,8.47
2019-02-10T04:48:57.493Z,11.33
2019-02-10T04:52:00.839Z,8.83
2019-02-10T04:55:03.982Z,15.77
2019-02-10T04:58:07.380Z,6.20
2019-02-10T05:01:11.008Z,12.75
2019-02-10T05:04:14.488Z,6.43
2019-02-10T05:07:18.029Z,9.90
2019-02-10T05:10:21.853Z,10.80
2019-02-10T05:13:25.200Z,13.67
2019-02-10T05:16:28.638Z,14.25
2019-02-10T05:19:32.001Z,12.37
2019-02-10T05:22:35.541Z,16.57
2019-02-10T05:25:39.000Z,15.43
2019-02-10T05:28:42.405Z,8.20
2019-02-10T05:31:46.958Z,10.77
2019-02-10T05:34:50.329Z,14.20
2019-02-10T05:37:53.727Z,7.53
2019-02-10T05:40:57.030Z,9.93
2019-02-10T05:44:00.426Z,11.07
2019-02-10T05:47:03.864Z,16.15
2019-02-10T05:50:07.534Z,11.37
2019-02-10T05:53:10.938Z,8.75
2019-02-10T05:56:14.328Z,13.85
2019-02-10T05:59:17.736Z,10.57
2019-02-10T06:02:25.323Z,6.77
2019-02-10T06:05:29.342Z,8.73
2019-02-10T06:08:32.748Z,10.07
2019-02-10T06:11:36.040Z,15.10
2019-02-10T06:14:39.345Z,11.37
2019-02-10T06:17:42.636Z,9.67
2019-02-10T06:20:45.946Z,10.90
2019-02-10T06:23:49.239Z,11.03
2019-02-10T06:26:52.572Z,10.23
2019-02-10T06:29:55.934Z,11.33
2019-02-10T06:32:59.272Z,13.40
2019-02-10T06:36:02.728Z,13.03
2019-02-10T06:39:06.197Z,10.38
2019-02-10T06:42:09.688Z,12.63
2019-02-10T06:45:13.356Z,13.98
2019-02-10T06:48:16.696Z,7.55
2019-02-10T06:51:20.157Z,15.80
2019-02-10T06:54:23.596Z,8.00
2019-02-10T06:57:27.100Z,13.05
2019-02-10T07:00:44.357Z,10.78
2019-02-10T07:04:06.568Z,14.43
2019-02-10T07:07:10.356Z,11.43
2019-02-10T07:10:13.632Z,11.63
2019-02-10T07:13:33.152Z,9.60
2019-02-10T07:17:01.700Z,9.33
2019-02-10T07:20:42.209Z,10.53
2019-02-10T07:24:20.900Z,10.57
2019-02-10T07:27:27.304Z,10.15
2019-02-10T07:30:50.228Z,9.40
2019-02-10T07:34:47.789Z,9.08
2019-02-10T07:38:18.128Z,14.40
2019-02-10T07:41:55.421Z,11.80
2019-02-10T07:45:26.504Z,12.90
2019-02-10T07:49:04.076Z,10.23
2019-02-10T07:52:29.527Z,14.60
2019-02-10T07:55:56.682Z,8.68
2019-02-10T07:59:47.500Z,8.10
2019-02-10T08:03:38.468Z,9.35
2019-02-10T08:07:13.344Z,8.65
2019-02-10T08:10:42.248Z,15.03
2019-02-10T08:14:41.725Z,10.55
2019-02-10T08:18:50.661Z,11.33
2019-02-10T08:22:34.541Z,9.80
2019-02-10T08:26:40.577Z,13.62
2019-02-10T08:30:27.124Z,14.30
2019-02-10T08:33:51.917Z,14.80
2019-02-10T08:37:10.133Z,13.32
2019-02-10T08:40:59.964Z,13.28
2019-02-10T08:44:14.440Z,12.73
2019-02-10T08:47:36.620Z,14.83
2019-02-10T08:51:02.633Z,11.50
2019-02-10T08:54:06.464Z,14.98
2019-02-10T08:57:09.947Z,14.85
2019-02-10T09:00:13.518Z,11.47
2019-02-10T09:03:19.629Z,12.83
2019-02-10T09:06:22.152Z,12.10
2019-02-10T09:09:25.516Z,9.80
2019-02-10T09:12:29.062Z,15.37
2019-02-10T09:15:32.724Z,19.35
2019-02-10T09:18:36.124Z,11.28
2019-02-10T09:21:39.568Z,12.78
2019-02-10T09:24:44.055Z,8.00
2019-02-10T09:27:49.185Z,14.07
2019-02-10T09:30:52.593Z,10.45
2019-02-10T09:33:56.090Z,17.17
2019-02-10T09:36:59.628Z,13.62
2019-02-10T09:40:03.194Z,15.20
2019-02-10T09:43:08.410Z,9.25
2019-02-10T09:46:11.844Z,14.47
2019-02-10T09:49:15.345Z,9.63
2019-02-10T09:52:18.990Z,15.43
2019-02-10T09:55:22.352Z,12.87
2019-02-10T09:58:25.784Z,16.07
2019-02-10T10:01:29.252Z,8.37
2019-02-10T10:04:32.803Z,8.57
2019-02-10T10:07:36.359Z,16.77
2019-02-10T10:10:39.756Z,12.60
2019-02-10T10:13:43.215Z,16.43
2019-02-10T10:16:46.660Z,15.60
2019-02-10T10:19:50.100Z,13.10
2019-02-10T10:22:53.597Z,17.33
2019-02-10T10:25:57.169Z,9.87
2019-02-10T10:29:00.714Z,17.90
2019-02-10T10:32:04.276Z,11.97
2019-02-10T10:35:08.186Z,19.87
2019-02-10T10:38:11.826Z,8.60
2019-02-10T10:41:15.293Z,11.60
2019-02-10T10:44:18.797Z,18.37
2019-02-10T10:47:22.402Z,13.10
2019-02-10T10:50:25.797Z,17.00
2019-02-10T10:53:29.380Z,11.37
2019-02-10T10:56:32.705Z,17.80
2019-02-10T10:59:36.100Z,10.07
2019-02-10T11:02:39.443Z,11.60
2019-02-10T11:05:42.914Z,13.20
2019-02-10T11:08:46.272Z,17.13
2019-02-10T11:11:49.804Z,11.47
2019-02-10T11:14:53.208Z,10.53
2019-02-10T11:17:56.646Z,7.63
2019-02-10T11:21:00.104Z,13.67
2019-02-10T11:24:03.608Z,18.70
2019-02-10T11:27:06.905Z,11.00
2019-02-10T11:30:10.409Z,14.75
2019-02-10T11:33:13.855Z,11.10
2019-02-10T11:36:17.206Z,11.53
2019-02-10T11:39:20.604Z,12.70
2019-02-10T11:42:24.349Z,16.17
2019-02-10T11:45:27.823Z,13.70
2019-02-10T11:48:31.356Z,15.57
2019-02-10T11:51:34.820Z,11.13
2019-02-10T11:54:38.346Z,9.20
2019-02-10T11:57:41.720Z,14.45
2019-02-10T12:00:45.029Z,20.27
2019-02-10T12:03:48.428Z,12.90
2019-02-10T12:06:51.820Z,10.23
2019-02-10T12:09:55.225Z,10.80
2019-02-10T12:12:58.653Z,13.17
2019-02-10T12:16:02.129Z,12.00
2019-02-10T12:19:05.636Z,11.28
2019-02-10T12:22:08.921Z,11.73
2019-02-10T12:25:12.548Z,11.33
2019-02-10T12:28:16.028Z,12.10
2019-02-10T12:31:19.541Z,8.67
2019-02-10T12:34:22.828Z,9.23
2019-02-10T12:37:32.276Z,11.23
2019-02-10T12:40:31.508Z,6.93
2019-02-10T12:43:34.976Z,14.40
2019-02-10T12:46:38.380Z,9.50
2019-02-10T12:49:41.720Z,11.80
2019-02-10T12:52:44.680Z,7.72
2019-02-10T12:55:48.204Z,7.67
2019-02-10T12:58:51.705Z,10.35
2019-02-10T13:01:55.169Z,6.87
2019-02-10T13:04:58.608Z,11.75
2019-02-10T13:08:02.076Z,11.08
2019-02-10T13:11:05.621Z,10.33
2019-02-10T13:14:09.220Z,11.47
2019-02-10T13:17:12.680Z,11.68
2019-02-10T13:20:16.121Z,4.20
2019-02-10T13:23:19.580Z,8.63
2019-02-10T13:26:24.956Z,9.98
2019-02-10T13:29:28.269Z,6.85
2019-02-10T13:32:31.625Z,5.87
2019-02-10T13:35:35.069Z,4.83
2019-02-10T13:38:38.528Z,5.90
2019-02-10T13:41:40.538Z,8.35
2019-02-10T13:44:44.041Z,10.03
2019-02-10T13:47:47.495Z,5.83
2019-02-10T13:50:50.944Z,5.72
2019-02-10T13:53:54.509Z,6.95
2019-02-10T13:56:57.906Z,8.38
2019-02-10T14:00:01.377Z,6.60
2019-02-10T14:03:04.809Z,9.50
2019-02-10T14:06:08.140Z,8.43
2019-02-10T14:09:11.505Z,7.23
2019-02-10T14:12:15.117Z,8.18
2019-02-10T14:15:18.669Z,8.00
2019-02-10T14:18:22.218Z,6.30
2019-02-10T14:21:25.622Z,2.80
2019-02-10T14:24:29.013Z,4.40
2019-02-10T14:27:32.421Z,4.50
2019-02-10T14:30:35.853Z,7.37
2019-02-10T14:33:39.318Z,3.80
2019-02-10T14:36:42.720Z,7.37
2019-02-10T14:39:46.057Z,6.40
2019-02-10T14:42:49.525Z,5.57
2019-02-10T14:45:53.061Z,6.53
2019-02-10T14:48:56.520Z,7.85
2019-02-10T14:52:00.952Z,5.85
2019-02-10T14:55:04.493Z,7.08
2019-02-10T14:58:08.080Z,4.97
2019-02-10T15:01:11.664Z,7.05
2019-02-10T15:04:15.057Z,9.13
2019-02-10T15:07:25.177Z,12.43
2019-02-10T15:10:24.048Z,5.28
2019-02-10T15:13:27.520Z,4.37
2019-02-10T15:16:30.909Z,6.83
2019-02-10T15:19:34.317Z,9.60
2019-02-10T15:22:37.717Z,5.58
2019-02-10T15:25:41.267Z,9.13
2019-02-10T15:28:44.817Z,8.80
2019-02-10T15:31:48.321Z,8.03
2019-02-10T15:34:51.824Z,5.93
2019-02-10T15:37:55.233Z,12.33
2019-02-10T15:40:58.625Z,8.05
2019-02-10T15:44:02.025Z,4.87
2019-02-10T15:47:05.525Z,5.57
2019-02-10T15:50:09.145Z,9.67
2019-02-10T15:53:12.532Z,6.45
2019-02-10T15:56:16.038Z,5.58
2019-02-10T15:59:19.328Z,6.73
2019-02-10T16:02:22.728Z,6.97
2019-02-10T16:05:26.173Z,7.65
2019-02-10T16:08:29.644Z,5.95
2019-02-10T16:11:33.033Z,6.17
2019-02-10T16:14:36.532Z,7.47
2019-02-10T16:17:40.036Z,6.35
2019-02-10T16:20:43.371Z,10.68
2019-02-10T16:23:46.833Z,6.23
2019-02-10T16:26:50.239Z,10.15
2019-02-10T16:29:54.660Z,8.43
2019-02-10T16:32:58.065Z,9.93
2019-02-10T16:36:01.357Z,5.70
2019-02-10T16:39:07.069Z,7.67
2019-02-10T16:42:10.660Z,5.37
2019-02-10T16:45:14.116Z,6.20
2019-02-10T16:48:17.659Z,5.90
2019-02-10T16:51:21.166Z,6.33
2019-02-10T16:54:24.520Z,9.10
2019-02-10T16:57:28.064Z,6.97
2019-02-10T17:00:31.629Z,5.75
2019-02-10T17:03:35.032Z,6.62
2019-02-10T17:06:38.470Z,8.15
2019-02-10T17:09:42.340Z,6.55
2019-02-10T17:12:45.888Z,5.65
2019-02-10T17:15:49.445Z,6.83
2019-02-10T17:18:52.853Z,10.58
2019-02-10T17:21:56.535Z,7.83
2019-02-10T17:25:00.076Z,5.92
2019-02-10T17:28:03.596Z,5.72
2019-02-10T17:31:07.105Z,8.68
2019-02-10T17:34:10.575Z,6.33
2019-02-10T17:37:14.104Z,6.55
2019-02-10T17:40:21.088Z,7.17
2019-02-10T17:43:28.240Z,5.73
2019-02-10T17:46:29.789Z,7.65
2019-02-10T17:49:33.340Z,4.85
2019-02-10T17:52:37.993Z,6.00
2019-02-10T17:55:41.434Z,9.53
2019-02-10T17:58:44.873Z,7.03
2019-02-10T18:01:48.626Z,5.03
2019-02-10T18:04:52.346Z,5.53
2019-02-10T18:07:55.992Z,7.00
2019-02-10T18:10:59.354Z,6.55
2019-02-10T18:14:04.971Z,5.28
2019-02-10T18:17:24.460Z,3.83
2019-02-10T18:20:47.952Z,6.28
2019-02-10T18:24:13.582Z,6.85
2019-02-10T18:27:49.401Z,6.70
2019-02-10T18:31:18.100Z,7.35
2019-02-10T18:34:30.850Z,5.75
2019-02-10T18:38:03.248Z,5.28
2019-02-10T18:41:39.545Z,6.72
2019-02-10T18:44:59.626Z,4.87
2019-02-10T18:48:11.425Z,4.17
2019-02-10T18:51:27.086Z,4.45
2019-02-10T18:54:55.728Z,4.95
2019-02-10T18:58:22.658Z,3.27
2019-02-10T19:01:51.236Z,6.42
2019-02-10T19:05:11.714Z,6.75
2019-02-10T19:08:40.952Z,5.97
2019-02-10T19:12:09.562Z,3.58
2019-02-10T19:15:32.279Z,3.15
2019-02-10T19:18:55.024Z,3.35
2019-02-10T19:22:08.440Z,3.80
2019-02-10T19:25:26.400Z,3.62
2019-02-10T19:29:01.372Z,2.65
2019-02-10T19:32:26.789Z,2.87
2019-02-10T19:35:43.760Z,2.53
2019-02-10T19:39:15.539Z,2.22
2019-02-10T19:42:26.988Z,1.95
2019-02-10T19:45:51.917Z,3.30
2019-02-10T19:49:22.575Z,1.87
2019-02-10T19:53:03.243Z,3.92
2019-02-10T19:56:24.981Z,3.30
2019-02-10T19:59:46.328Z,2.50
2019-02-10T20:03:05.263Z,2.42
2019-02-10T20:06:26.524Z,2.62
2019-02-10T20:09:52.593Z,2.15
2019-02-10T20:13:14.472Z,2.55
2019-02-10T20:16:22.664Z,1.67
2019-02-10T20:19:42.801Z,5.83
2019-02-10T20:23:05.012Z,1.95
2019-02-10T20:26:39.941Z,1.75
2019-02-10T20:30:08.515Z,2.47
2019-02-10T20:33:31.344Z,1.77
2019-02-10T20:36:42.740Z,2.37
2019-02-10T20:39:57.627Z,2.08
2019-02-10T20:43:32.615Z,2.00
2019-02-10T20:46:55.712Z,1.90
2019-02-10T20:50:07.405Z,2.20
2019-02-10T20:53:32.685Z,1.75
2019-02-10T20:56:55.397Z,2.27
2019-02-10T21:00:12.204Z,2.62
2019-02-10T21:03:34.122Z,2.12
2019-02-10T21:06:47.081Z,1.50
2019-02-10T21:10:18.228Z,4.72
2019-02-10T21:13:48.564Z,2.75
2019-02-10T21:17:23.761Z,1.57
2019-02-10T21:20:39.770Z,1.55
2019-02-10T21:23:57.140Z,1.72
2019-02-10T21:27:22.852Z,2.57
2019-02-10T21:30:51.616Z,1.25
2019-02-10T21:34:25.210Z,1.57
2019-02-10T21:37:37.643Z,2.15
2019-02-10T21:41:12.283Z,1.35
2019-02-10T21:44:33.920Z,2.02
2019-02-10T21:47:44.993Z,1.53
2019-02-10T21:50:48.414Z,1.85
2019-02-10T21:53:51.847Z,2.58
2019-02-10T21:56:55.501Z,1.20
2019-02-10T21:59:59.073Z,2.62
2019-02-10T22:03:03.569Z,2.08
2019-02-10T22:06:08.171Z,1.20
2019-02-10T22:09:12.976Z,2.08
2019-02-10T22:12:16.622Z,2.62
2019-02-10T22:15:20.107Z,1.65
2019-02-10T22:18:23.628Z,1.22
2019-02-10T22:21:27.224Z,1.93
2019-02-10T22:24:30.939Z,0.90
2019-02-10T22:27:34.422Z,6.12
2019-02-10T22:30:37.902Z,0.80
2019-02-10T22:33:41.532Z,0.93
2019-02-10T22:36:44.892Z,0.90
2019-02-10T22:39:48.552Z,2.20
2019-02-10T22:42:52.053Z,0.90
2019-02-10T22:45:55.605Z,1.45
2019-02-10T22:48:59.008Z,1.12
2019-02-10T22:52:02.507Z,1.50
2019-02-10T22:55:06.217Z,12.47
2019-02-10T22:58:09.616Z,1.98
2019-02-10T23:01:13.155Z,1.27
2019-02-10T23:04:16.656Z,1.32
2019-02-10T23:07:20.273Z,1.37
2019-02-10T23:10:23.777Z,1.27
2019-02-10T23:13:27.379Z,1.50
2019-02-10T23:16:30.836Z,0.90
2019-02-10T23:19:34.521Z,3.20
2019-02-10T23:22:37.940Z,1.17
2019-02-10T23:25:41.441Z,1.27
2019-02-10T23:29:33.438Z,1.77
2019-02-10T23:32:36.988Z,0.80
2019-02-10T23:35:41.326Z,0.72
2019-02-10T23:38:45.014Z,1.15
2019-02-10T23:41:48.452Z,0.90
2019-02-10T23:44:51.957Z,0.50
2019-02-10T23:47:55.325Z,0.70
2019-02-10T23:50:58.843Z,1.45
2019-02-10T23:54:02.220Z,1.67
2019-02-10T23:57:05.517Z,0.60
